Time;durP1;ratioP1;P1;durP2;ratioP2;P2;SDS_P1;SDS_P2;PMS_P1;PMS_P2;Temp;Humidity;BMP_temperature;BMP_pressure;BME280_temperature;BME280_humidity;BME280_pressure;Samples;Min_cycle;Max_cycle;Signal;HPM_P1;HPM_P2
2022/03/05 00:02:26;;;;;;;9.13;3.83;;;7.40;1.00;;;;;;5070183;28;20205;-76
2022/03/05 00:04:55;;;;;;;10.93;2.63;;;7.40;1.00;;;;;;5069661;28;20259;-75
2022/03/05 00:07:22;;;;;;;4.47;2.10;;;7.40;99.90;;;;;;5070446;28;20214;-75
2022/03/05 00:09:49;;;;;;;5.60;2.93;;;7.40;99.90;;;;;;5069988;28;20630;-75
2022/03/05 00:12:16;;;;;;;13.13;2.30;;;7.40;99.90;;;;;;5070516;28;20202;-76
2022/03/05 00:14:43;;;;;;;6.07;2.37;;;7.40;99.90;;;;;;5073340;28;20206;-76
2022/03/05 00:17:10;;;;;;;7.33;2.33;;;7.40;1.00;;;;;;5073496;28;20241;-76
2022/03/05 00:19:37;;;;;;;9.50;2.40;;;7.30;99.90;;;;;;5074121;28;20198;-73
2022/03/05 00:22:05;;;;;;;6.13;2.40;;;7.30;99.90;;;;;;5073868;28;20334;-73
2022/03/05 00:24:33;;;;;;;6.33;2.30;;;7.30;99.90;;;;;;5073835;28;20275;-72
2022/03/05 00:27:00;;;;;;;4.77;2.30;;;7.40;99.90;;;;;;5073228;28;20259;-71
2022/03/05 00:29:27;;;;;;;8.97;3.23;;;7.40;99.90;;;;;;5073148;28;20251;-71
2022/03/05 00:31:54;;;;;;;6.87;3.03;;;7.40;99.90;;;;;;5073141;28;20731;-72
2022/03/05 00:34:21;;;;;;;4.90;2.23;;;;;;;;;;5073455;28;20236;-73
2022/03/05 00:36:48;;;;;;;8.10;2.80;;;8.70;1.00;;;;;;5073005;28;20234;-73
2022/03/05 00:39:16;;;;;;;4.47;2.13;;;7.50;92.60;;;;;;5073397;28;20206;-72
2022/03/05 00:41:43;;;;;;;5.23;2.53;;;7.40;46.60;;;;;;5073086;28;20207;-71
2022/03/05 00:44:10;;;;;;;3.67;1.80;;;7.50;89.90;;;;;;5073146;28;20228;-72
2022/03/05 00:46:37;;;;;;;5.77;1.90;;;7.50;23.20;;;;;;5073501;28;20214;-72
2022/03/05 00:49:04;;;;;;;6.30;3.00;;;7.40;49.20;;;;;;5073328;28;20666;-71
2022/03/05 00:51:31;;;;;;;6.07;2.23;;;7.50;84.70;;;;;;5073174;28;20251;-71
2022/03/05 00:53:58;;;;;;;5.97;2.00;;;7.40;97.50;;;;;;5072730;28;20275;-73
2022/03/05 00:56:27;;;;;;;4.20;1.93;;;7.50;80.80;;;;;;5073134;28;20295;-75
2022/03/05 00:58:54;;;;;;;6.20;1.80;;;7.40;1.00;;;;;;5072415;28;20202;-73
2022/03/05 01:01:21;;;;;;;7.43;2.87;;;7.40;30.80;;;;;;5072885;28;20214;-75
2022/03/05 01:03:48;;;;;;;6.90;2.10;;;7.50;59.00;;;;;;5072674;28;20251;-75
2022/03/05 01:06:15;;;;;;;7.63;2.47;;;7.40;1.00;;;;;;5073101;28;20285;-75
2022/03/05 01:08:42;;;;;;;3.27;1.97;;;7.40;99.90;;;;;;5072708;28;20202;-75
2022/03/05 01:11:09;;;;;;;3.50;1.83;;;7.40;99.90;;;;;;5072708;28;20224;-75
2022/03/05 01:13:38;;;;;;;4.10;1.97;;;7.50;99.90;;;;;;5073107;28;20670;-75
2022/03/05 01:16:05;;;;;;;4.80;2.30;;;7.50;99.90;;;;;;5072680;28;20230;-75
2022/03/05 01:18:32;;;;;;;5.53;1.90;;;7.50;99.90;;;;;;5072719;28;20256;-73
2022/03/05 01:20:59;;;;;;;6.97;2.53;;;7.40;15.90;;;;;;5072348;28;20658;-72
2022/03/05 01:23:26;;;;;;;6.03;2.43;;;7.40;38.50;;;;;;5072241;28;20258;-72
2022/03/05 01:25:53;;;;;;;6.63;1.80;;;;;;;;;;5072008;28;20210;-72
2022/03/05 01:28:20;;;;;;;3.47;2.53;;;7.40;10.80;;;;;;5072295;28;20202;-70
2022/03/05 01:30:49;;;;;;;4.57;1.73;;;7.40;1.00;;;;;;5072055;28;20252;-69
2022/03/05 01:33:17;;;;;;;6.00;3.17;;;7.40;1.00;;;;;;5072389;28;20198;-70
2022/03/05 01:35:46;;;;;;;8.30;2.00;;;7.40;1.00;;;;;;5072032;28;20242;-71
2022/03/05 01:38:13;;;;;;;6.03;2.00;;;7.40;1.00;;;;;;5072327;28;20202;-74
2022/03/05 01:40:40;;;;;;;5.63;1.77;;;;;;;;;;5071547;28;20202;-73
2022/03/05 01:43:08;;;;;;;5.30;2.20;;;;;;;;;;5072783;28;20202;-73
2022/03/05 01:45:36;;;;;;;6.30;3.20;;;8.60;99.90;;;;;;5072427;28;20253;-73
2022/03/05 01:48:05;;;;;;;7.53;3.20;;;7.50;1.00;;;;;;5071995;28;20206;-71
2022/03/05 01:50:32;;;;;;;7.57;2.43;;;7.40;1.00;;;;;;5072258;28;20621;-72
2022/03/05 01:52:59;;;;;;;4.73;2.73;;;7.30;99.90;;;;;;5071410;28;20206;-72
2022/03/05 01:55:27;;;;;;;7.00;1.60;;;;;;;;;;5071727;28;20206;-69
2022/03/05 01:57:54;;;;;;;5.57;1.57;;;;;;;;;;5071676;28;20587;-69
2022/03/05 02:00:21;;;;;;;4.13;2.13;;;7.80;99.90;;;;;;5071687;28;20252;-71
2022/03/05 02:02:48;;;;;;;2.40;1.90;;;7.40;1.00;;;;;;5071524;28;20214;-79
2022/03/05 02:05:17;;;;;;;9.50;2.70;;;7.50;1.00;;;;;;5071562;28;20268;-73
2022/03/05 02:07:44;;;;;;;3.90;2.53;;;7.40;1.00;;;;;;5071277;28;20251;-74
2022/03/05 02:10:11;;;;;;;4.00;2.03;;;7.40;1.00;;;;;;5071787;28;20263;-73
2022/03/05 02:12:40;;;;;;;6.30;2.50;;;7.40;1.00;;;;;;5071842;28;20234;-73
2022/03/05 02:15:08;;;;;;;2.30;2.10;;;7.40;1.00;;;;;;5072053;28;20202;-74
2022/03/05 02:17:37;;;;;;;4.50;3.10;;;7.40;1.00;;;;;;5071668;28;20706;-73
2022/03/05 02:20:05;;;;;;;7.43;2.63;;;8.40;1.00;;;;;;5071390;28;20206;-73
2022/03/05 02:22:34;;;;;;;8.90;2.47;;;7.60;1.00;;;;;;5071437;28;20206;-74
2022/03/05 02:25:03;;;;;;;6.93;2.73;;;7.50;1.00;;;;;;5070960;28;20632;-73
2022/03/05 02:27:30;;;;;;;6.90;2.63;;;;;;;;;;5071469;28;20202;-74
2022/03/05 02:29:58;;;;;;;5.03;3.40;;;7.50;1.00;;;;;;5070955;28;20279;-76
2022/03/05 02:32:25;;;;;;;5.27;2.50;;;7.50;1.00;;;;;;5071272;28;20670;-73
2022/03/05 02:34:53;;;;;;;3.70;2.10;;;7.50;1.00;;;;;;5070344;28;20259;-73
2022/03/05 02:37:20;;;;;;;7.27;2.33;;;7.50;1.00;;;;;;5071127;28;20233;-73
2022/03/05 02:39:49;;;;;;;4.53;2.77;;;7.40;1.00;;;;;;5070488;28;20249;-73
2022/03/05 02:42:17;;;;;;;6.77;2.80;;;7.40;1.00;;;;;;5071062;28;20259;-74
2022/03/05 02:44:45;;;;;;;7.00;3.23;;;7.40;1.00;;;;;;5069260;28;20609;-75
2022/03/05 02:47:12;;;;;;;7.33;2.67;;;7.50;1.00;;;;;;5070673;28;20247;-75
2022/03/05 02:49:39;;;;;;;4.33;2.20;;;7.50;1.00;;;;;;5069416;28;20264;-75
2022/03/05 02:52:07;;;;;;;3.03;2.07;;;7.50;1.00;;;;;;5069331;28;20662;-74
2022/03/05 02:54:34;;;;;;;5.57;2.33;;;7.40;1.00;;;;;;5069587;28;20247;-74
2022/03/05 02:57:03;;;;;;;6.30;2.47;;;7.40;1.00;;;;;;5069941;28;20222;-72
2022/03/05 02:59:30;;;;;;;3.10;2.80;;;7.40;1.00;;;;;;5071036;28;20213;-71
2022/03/05 03:01:57;;;;;;;5.03;2.30;;;7.40;1.00;;;;;;5069653;28;20213;-73
2022/03/05 03:04:24;;;;;;;7.20;2.80;;;7.50;1.00;;;;;;5071022;28;20241;-72
2022/03/05 03:06:51;;;;;;;6.43;2.50;;;7.50;1.00;;;;;;5068891;28;20213;-71
2022/03/05 03:09:18;;;;;;;10.73;3.17;;;7.40;1.00;;;;;;5069034;28;20264;-72
2022/03/05 03:11:45;;;;;;;9.07;2.53;;;7.40;1.00;;;;;;5070289;28;20202;-71
2022/03/05 03:14:13;;;;;;;3.63;2.67;;;7.40;1.00;;;;;;5070816;28;20202;-72
2022/03/05 03:16:40;;;;;;;5.73;2.20;;;7.40;1.00;;;;;;5070193;28;20226;-72
2022/03/05 03:19:07;;;;;;;4.83;2.80;;;7.40;1.00;;;;;;5071218;28;20198;-71
2022/03/05 03:21:34;;;;;;;5.00;2.10;;;7.50;1.00;;;;;;5071257;28;20282;-71
2022/03/05 03:24:01;;;;;;;12.13;3.20;;;7.40;1.00;;;;;;5070459;28;20274;-72
2022/03/05 03:26:28;;;;;;;5.43;2.20;;;7.40;1.00;;;;;;5070621;28;20697;-73
2022/03/05 03:28:55;;;;;;;10.03;2.83;;;7.40;1.00;;;;;;5070120;28;20681;-72
2022/03/05 03:31:23;;;;;;;11.40;3.10;;;7.40;2.20;;;;;;5070611;28;20671;-73
2022/03/05 03:33:50;;;;;;;8.03;3.67;;;7.30;7.00;;;;;;5070593;28;20260;-73
2022/03/05 03:36:17;;;;;;;10.87;3.20;;;7.40;92.00;;;;;;5070491;28;20206;-70
2022/03/05 03:38:44;;;;;;;11.60;4.23;;;7.40;76.30;;;;;;5070359;28;20626;-71
2022/03/05 03:41:11;;;;;;;10.83;3.07;;;7.40;55.20;;;;;;5070456;28;20198;-72
2022/03/05 03:43:38;;;;;;;5.63;3.27;;;7.40;64.10;;;;;;5070516;28;20556;-72
2022/03/05 03:46:06;;;;;;;10.17;4.03;;;7.40;69.80;;;;;;5070999;28;20198;-71
2022/03/05 03:48:34;;;;;;;9.67;3.53;;;7.30;1.00;;;;;;5074687;28;20205;-74
2022/03/05 03:51:02;;;;;;;6.97;2.73;;;7.30;1.00;;;;;;5074002;28;20251;-73
2022/03/05 03:53:29;;;;;;;11.90;3.67;;;7.40;1.00;;;;;;5074106;28;20202;-73
2022/03/05 03:55:56;;;;;;;13.37;5.27;;;7.40;1.00;;;;;;5074004;28;20268;-74
2022/03/05 03:58:23;;;;;;;11.90;3.60;;;7.40;1.00;;;;;;5074164;28;20771;-75
2022/03/05 04:00:50;;;;;;;10.07;3.73;;;7.50;1.00;;;;;;5073688;28;20214;-74
2022/03/05 04:03:18;;;;;;;8.20;3.53;;;7.40;1.00;;;;;;5072794;28;20616;-76
2022/03/05 04:05:47;;;;;;;13.60;5.70;;;7.40;1.00;;;;;;5073330;28;20208;-75
2022/03/05 04:10:58;;;;;;;11.20;3.80;;;7.40;1.00;;;;;;5072212;28;20198;-76
2022/03/05 04:13:25;;;;;;;7.87;3.73;;;7.40;1.00;;;;;;5072369;28;20202;-74
2022/03/05 04:15:52;;;;;;;14.80;4.47;;;7.30;1.00;;;;;;5073428;28;20234;-74
2022/03/05 04:18:19;;;;;;;9.57;3.07;;;7.30;1.00;;;;;;5073693;28;20246;-74
2022/03/05 04:20:47;;;;;;;7.57;3.50;;;7.40;1.00;;;;;;5073288;28;20557;-74
2022/03/05 04:23:14;;;;;;;10.60;3.90;;;7.40;1.00;;;;;;5073694;28;20252;-73
2022/03/05 04:25:41;;;;;;;11.00;3.20;;;7.40;1.00;;;;;;5073423;28;20731;-73
2022/03/05 04:28:08;;;;;;;10.43;3.33;;;7.40;1.00;;;;;;5074024;28;20202;-74
2022/03/05 04:30:36;;;;;;;10.87;3.33;;;7.40;1.00;;;;;;5073956;28;20241;-73
2022/03/05 04:33:03;;;;;;;21.13;4.00;;;7.40;1.00;;;;;;5073192;28;20198;-74
2022/03/05 04:35:30;;;;;;;14.63;3.60;;;7.40;1.00;;;;;;5073585;28;20637;-73
2022/03/05 04:37:58;;;;;;;7.83;3.20;;;7.40;1.00;;;;;;5073090;28;20233;-74
2022/03/05 04:40:25;;;;;;;10.33;3.07;;;7.40;1.00;;;;;;5073639;28;20202;-71
2022/03/05 04:42:52;;;;;;;10.20;3.93;;;7.40;1.00;;;;;;5073249;28;20202;-71
2022/03/05 04:45:19;;;;;;;7.27;2.80;;;7.50;1.00;;;;;;5073446;28;20260;-71
2022/03/05 04:47:46;;;;;;;6.13;3.23;;;7.50;1.00;;;;;;5073041;28;20198;-71
2022/03/05 04:50:13;;;;;;;10.03;3.10;;;7.40;1.00;;;;;;5073025;28;20206;-72
2022/03/05 04:52:41;;;;;;;6.67;3.70;;;7.40;1.00;;;;;;5073153;28;20253;-72
2022/03/05 04:55:10;;;;;;;8.30;4.33;;;7.40;1.00;;;;;;5073347;28;20202;-72
2022/03/05 04:57:37;;;;;;;6.90;3.17;;;7.40;1.00;;;;;;5073469;28;20269;-73
2022/03/05 05:00:05;;;;;;;7.63;3.70;;;7.40;1.00;;;;;;5072439;28;20198;-72
2022/03/05 05:02:32;;;;;;;11.57;5.27;;;7.40;1.00;;;;;;5072990;28;20206;-73
2022/03/05 05:04:59;;;;;;;7.20;3.40;;;7.30;1.00;;;;;;5072301;28;20402;-73
2022/03/05 05:07:26;;;;;;;8.23;3.37;;;7.40;1.00;;;;;;5072934;28;20202;-73
2022/03/05 05:09:53;;;;;;;8.63;3.33;;;7.40;1.00;;;;;;5072558;28;20198;-72
2022/03/05 05:12:22;;;;;;;5.53;3.20;;;7.40;1.00;;;;;;5073035;28;20232;-72
2022/03/05 05:14:49;;;;;;;10.17;3.40;;;7.40;1.00;;;;;;5072544;28;20236;-73
2022/03/05 05:17:17;;;;;;;10.23;4.43;;;7.40;1.00;;;;;;5072651;28;20238;-73
2022/03/05 05:19:44;;;;;;;6.40;4.00;;;7.40;1.00;;;;;;5072297;28;20665;-74
2022/03/05 05:22:11;;;;;;;10.33;4.23;;;7.40;1.00;;;;;;5072808;28;20268;-74
2022/03/05 05:24:39;;;;;;;5.50;3.07;;;7.40;1.00;;;;;;5072862;28;20558;-74
2022/03/05 05:27:06;;;;;;;5.70;3.43;;;7.40;1.00;;;;;;5073051;28;20206;-74
2022/03/05 05:29:35;;;;;;;5.87;3.60;;;7.40;1.00;;;;;;5072763;28;20233;-73
2022/03/05 05:32:02;;;;;;;8.80;4.17;;;7.40;1.00;;;;;;5072089;28;20248;-74
2022/03/05 05:34:29;;;;;;;10.07;3.83;;;7.50;1.00;;;;;;5072509;28;20251;-74
2022/03/05 05:36:56;;;;;;;11.27;3.83;;;7.50;1.00;;;;;;5072143;28;20233;-74
2022/03/05 05:39:23;;;;;;;10.33;3.47;;;7.40;1.00;;;;;;5072438;28;20210;-74
2022/03/05 05:41:50;;;;;;;12.93;4.33;;;7.50;1.00;;;;;;5072027;28;20220;-73
2022/03/05 05:44:17;;;;;;;8.87;3.23;;;7.40;1.00;;;;;;5072236;28;20206;-75
2022/03/05 05:46:45;;;;;;;12.63;3.50;;;7.50;1.00;;;;;;5071945;28;20220;-76
2022/03/05 05:49:12;;;;;;;8.33;3.77;;;7.50;1.00;;;;;;5072132;28;20264;-74
2022/03/05 05:51:39;;;;;;;13.10;4.07;;;7.50;1.00;;;;;;5072241;28;20209;-74
2022/03/05 05:54:08;;;;;;;11.97;4.87;;;7.50;1.00;;;;;;5072372;28;20283;-75
2022/03/05 05:56:35;;;;;;;9.43;3.63;;;7.40;1.00;;;;;;5071915;28;20213;-74
2022/03/05 05:59:02;;;;;;;8.53;3.17;;;7.40;1.00;;;;;;5071112;28;20295;-74
2022/03/05 06:01:29;;;;;;;12.43;3.63;;;7.40;1.00;;;;;;5071199;28;20717;-74
2022/03/05 06:03:58;;;;;;;12.20;3.27;;;7.40;1.00;;;;;;5071491;28;20256;-73
2022/03/05 06:06:25;;;;;;;6.00;3.90;;;7.50;62.30;;;;;;5071596;28;20739;-75
2022/03/05 06:08:52;;;;;;;10.63;4.43;;;7.40;33.50;;;;;;5071412;28;20206;-73
2022/03/05 06:11:19;;;;;;;8.93;3.57;;;7.40;99.90;;;;;;5071653;28;20202;-74
2022/03/05 06:13:46;;;;;;;10.23;4.70;;;7.40;99.90;;;;;;5071532;28;20206;-74
2022/03/05 06:16:13;;;;;;;9.83;4.40;;;7.40;1.00;;;;;;5071617;28;20209;-74
2022/03/05 06:18:42;;;;;;;10.23;3.47;;;7.40;99.90;;;;;;5071143;28;20241;-74
2022/03/05 06:21:10;;;;;;;8.73;4.13;;;7.40;99.90;;;;;;5071549;28;20206;-74
2022/03/05 06:23:37;;;;;;;9.53;4.57;;;7.30;99.90;;;;;;5071742;28;20323;-73
2022/03/05 06:26:05;;;;;;;14.53;4.90;;;7.30;99.90;;;;;;5071275;28;20232;-74
2022/03/05 06:28:32;;;;;;;15.97;4.17;;;7.30;99.90;;;;;;5071545;28;20202;-72
2022/03/05 06:30:59;;;;;;;13.80;4.93;;;7.40;99.90;;;;;;5071026;28;20339;-72
2022/03/05 06:33:27;;;;;;;9.13;4.13;;;7.40;99.90;;;;;;5071434;28;20202;-77
2022/03/05 06:35:54;;;;;;;12.70;5.10;;;7.40;99.90;;;;;;5071008;28;20559;-78
2022/03/05 06:38:23;;;;;;;11.53;4.53;;;7.50;99.90;;;;;;5070763;28;20233;-79
2022/03/05 06:40:50;;;;;;;15.53;5.33;;;7.50;99.90;;;;;;5078436;28;20586;-76
2022/03/05 06:43:18;;;;;;;13.60;4.70;;;7.50;92.00;;;;;;5090969;28;20673;-75
2022/03/05 06:45:45;;;;;;;7.50;4.00;;;7.40;1.00;;;;;;5079102;28;20207;-80
2022/03/05 06:48:13;;;;;;;12.27;5.00;;;7.50;25.90;;;;;;5091136;28;20209;-77
2022/03/05 06:50:40;;;;;;;7.83;3.80;;;7.50;1.10;;;;;;5091168;28;20209;-74
2022/03/05 06:53:07;;;;;;;10.93;4.00;;;7.50;1.00;;;;;;5091072;28;20256;-77
2022/03/05 06:55:36;;;;;;;12.47;6.03;;;7.60;1.00;;;;;;5091720;28;20248;-79
2022/03/05 06:58:03;;;;;;;13.43;5.13;;;7.60;1.00;;;;;;5077625;28;20224;-79
2022/03/05 07:00:30;;;;;;;11.77;4.20;;;7.50;1.00;;;;;;5084694;28;20205;-75
2022/03/05 07:02:57;;;;;;;10.10;3.73;;;7.20;1.00;;;;;;5073771;28;20243;-72
2022/03/05 07:05:24;;;;;;;13.57;4.20;;;7.60;1.00;;;;;;5074543;28;20568;-77
2022/03/05 07:07:52;;;;;;;20.43;5.30;;;7.60;1.00;;;;;;5076064;28;20267;-74
2022/03/05 07:10:19;;;;;;;16.67;4.77;;;7.60;1.00;;;;;;5082315;28;20658;-77
2022/03/05 07:12:47;;;;;;;14.33;5.33;;;7.60;1.00;;;;;;5084189;28;20217;-74
2022/03/05 07:15:14;;;;;;;10.33;4.80;;;8.40;1.00;;;;;;5084592;28;20661;-75
2022/03/05 07:17:49;;;;;;;11.23;3.57;;;8.20;1.00;;;;;;5087358;28;20209;-75
2022/03/05 07:20:16;;;;;;;14.87;4.90;;;7.70;1.00;;;;;;5077428;28;20647;-79
2022/03/05 07:22:43;;;;;;;13.67;4.57;;;7.60;1.00;;;;;;5084294;28;20263;-75
2022/03/05 07:25:11;;;;;;;10.83;4.87;;;;;;;;;;5088639;28;20274;-75
2022/03/05 07:27:38;;;;;;;8.50;3.43;;;;;;;;;;5086081;28;20630;-75
2022/03/05 07:30:08;;;;;;;11.23;3.23;;;;;;;;;;5089279;28;20563;-75
2022/03/05 07:32:36;;;;;;;20.57;5.33;;;8.20;1.00;;;;;;5079787;28;20631;-77
2022/03/05 07:35:04;;;;;;;14.87;4.43;;;7.90;1.00;;;;;;5089727;28;20206;-72
2022/03/05 07:37:31;;;;;;;13.40;3.97;;;7.90;1.00;;;;;;5075155;28;20209;-77
2022/03/05 07:39:59;;;;;;;11.67;4.47;;;7.90;1.00;;;;;;5070541;28;20928;-73
2022/03/05 07:42:27;;;;;;;9.20;4.30;;;8.00;1.00;;;;;;5068442;28;20198;-76
2022/03/05 07:44:54;;;;;;;14.03;4.70;;;8.00;1.00;;;;;;5072303;28;20210;-74
2022/03/05 07:47:22;;;;;;;13.63;4.50;;;8.00;1.00;;;;;;5087039;28;20224;-74
2022/03/05 07:49:49;;;;;;;18.20;4.50;;;8.10;1.00;;;;;;5077671;28;20580;-72
2022/03/05 07:52:16;;;;;;;13.13;5.20;;;8.10;1.00;;;;;;5077199;28;20285;-72
2022/03/05 07:54:43;;;;;;;11.37;4.40;;;8.10;1.00;;;;;;5090274;28;20263;-73
2022/03/05 07:57:10;;;;;;;14.67;4.00;;;8.20;1.00;;;;;;5076090;28;20206;-74
2022/03/05 07:59:37;;;;;;;14.07;4.37;;;8.20;1.00;;;;;;5079662;28;20320;-74
2022/03/05 08:02:05;;;;;;;9.10;4.40;;;8.20;1.00;;;;;;5068356;28;20255;-73
2022/03/05 08:04:33;;;;;;;17.13;5.10;;;8.20;1.00;;;;;;5068770;28;20749;-74
2022/03/05 08:07:00;;;;;;;14.17;5.47;;;8.20;1.00;;;;;;5069286;28;20280;-75
2022/03/05 08:09:27;;;;;;;11.63;4.77;;;8.20;1.00;;;;;;5069709;28;20199;-73
2022/03/05 08:11:54;;;;;;;11.40;4.10;;;8.20;1.00;;;;;;5069345;28;20335;-76
2022/03/05 08:14:21;;;;;;;11.67;4.97;;;8.20;1.00;;;;;;5066791;28;20216;-73
2022/03/05 08:16:48;;;;;;;8.70;4.77;;;8.20;1.00;;;;;;5060038;28;20202;-74
2022/03/05 08:19:15;;;;;;;10.80;4.23;;;8.30;1.00;;;;;;5070416;28;20233;-76
2022/03/05 08:21:44;;;;;;;8.80;3.83;;;8.40;1.00;;;;;;5066842;28;20213;-75
2022/03/05 08:24:11;;;;;;;16.57;4.60;;;8.40;1.00;;;;;;5069892;28;20199;-74
2022/03/05 08:26:39;;;;;;;14.43;3.87;;;8.40;1.00;;;;;;5070001;28;20214;-74
2022/03/05 08:29:06;;;;;;;13.90;4.80;;;8.40;1.00;;;;;;5070389;28;20214;-75
2022/03/05 08:31:33;;;;;;;11.93;4.83;;;8.40;1.00;;;;;;5070405;28;20198;-77
2022/03/05 08:34:01;;;;;;;10.43;4.67;;;8.50;1.00;;;;;;5071175;28;20587;-76
2022/03/05 08:36:29;;;;;;;9.50;5.10;;;8.50;1.00;;;;;;5073693;28;20202;-77
2022/03/05 08:38:57;;;;;;;12.50;6.10;;;8.50;1.00;;;;;;5072964;28;20230;-76
2022/03/05 08:41:25;;;;;;;13.03;4.37;;;8.60;1.00;;;;;;5063948;28;20207;-75
2022/03/05 08:43:52;;;;;;;9.47;4.00;;;8.60;1.00;;;;;;5077908;28;20206;-77
2022/03/05 08:46:19;;;;;;;8.53;3.50;;;8.60;1.00;;;;;;5080546;28;20279;-75
2022/03/05 08:48:46;;;;;;;12.30;4.83;;;8.70;1.00;;;;;;5077826;28;20207;-74
2022/03/05 08:51:13;;;;;;;13.33;4.73;;;8.70;1.00;;;;;;5082917;28;20197;-73
2022/03/05 08:53:40;;;;;;;10.03;4.23;;;8.70;99.90;;;;;;5078136;28;20618;-72
2022/03/05 08:56:09;;;;;;;13.90;4.53;;;8.90;99.90;;;;;;5080309;28;20207;-75
2022/03/05 08:58:36;;;;;;;9.83;4.80;;;9.00;99.90;;;;;;5072999;28;20230;-74
2022/03/05 09:01:03;;;;;;;8.03;4.83;;;9.10;99.90;;;;;;5071568;28;20263;-75
2022/03/05 09:03:30;;;;;;;17.73;5.30;;;9.00;99.90;;;;;;5072923;28;20203;-74
2022/03/05 09:05:57;;;;;;;9.43;4.17;;;8.90;99.90;;;;;;5069002;28;20625;-74
2022/03/05 09:08:24;;;;;;;13.87;4.63;;;9.00;99.90;;;;;;5053000;28;20674;-73
2022/03/05 09:10:51;;;;;;;12.30;4.60;;;9.00;99.90;;;;;;5064489;28;20218;-75
2022/03/05 09:13:20;;;;;;;11.03;4.30;;;9.00;99.90;;;;;;5062450;28;20199;-75
2022/03/05 09:15:47;;;;;;;9.87;3.77;;;9.20;99.90;;;;;;5054929;28;20249;-75
2022/03/05 09:18:13;;;;;;;9.60;4.47;;;9.30;99.90;;;;;;5071046;28;20202;-74
2022/03/05 09:20:43;;;;;;;17.40;6.00;;;9.30;99.90;;;;;;5072453;28;20206;-74
2022/03/05 09:23:10;;;;;;;8.53;4.33;;;9.30;99.90;;;;;;5072696;28;20217;-73
2022/03/05 09:25:37;;;;;;;8.10;4.33;;;9.20;99.90;;;;;;5073080;28;20630;-74
2022/03/05 09:28:04;;;;;;;9.70;5.13;;;9.30;99.90;;;;;;5072606;28;20202;-74
2022/03/05 09:30:32;;;;;;;14.83;4.60;;;9.20;99.90;;;;;;5065249;28;20210;-73
2022/03/05 09:32:59;;;;;;;7.20;4.17;;;9.20;99.90;;;;;;5065962;28;20373;-73
2022/03/05 09:35:26;;;;;;;12.83;4.23;;;9.40;99.90;;;;;;5072487;28;20251;-73
2022/03/05 09:37:53;;;;;;;7.37;3.77;;;9.50;99.90;;;;;;5071964;28;20202;-73
2022/03/05 09:40:21;;;;;;;6.83;4.47;;;9.60;99.90;;;;;;5068130;28;20287;-74
2022/03/05 09:42:48;;;;;;;8.90;5.17;;;9.50;99.90;;;;;;5053823;28;20701;-73
2022/03/05 09:45:15;;;;;;;12.27;5.90;;;9.60;99.90;;;;;;5068872;28;20738;-73
2022/03/05 09:47:45;;;;;;;13.17;5.53;;;9.60;99.90;;;;;;5071893;28;20251;-73
2022/03/05 09:50:12;;;;;;;9.80;5.87;;;9.60;99.90;;;;;;5072149;28;20285;-73
2022/03/05 09:52:39;;;;;;;12.97;4.63;;;9.60;99.90;;;;;;5072383;28;20206;-72
2022/03/05 09:55:09;;;;;;;9.20;4.53;;;9.60;99.90;;;;;;5071712;28;20206;-71
2022/03/05 09:57:36;;;;;;;13.67;5.97;;;9.50;99.90;;;;;;5070801;28;20198;-72
2022/03/05 10:00:05;;;;;;;11.93;5.43;;;9.60;99.90;;;;;;5060858;28;20234;-73
2022/03/05 10:02:32;;;;;;;7.83;5.00;;;9.60;99.90;;;;;;5071604;28;20299;-74
2022/03/05 10:05:24;;;;;;;8.50;4.80;;;9.60;99.90;;;;;;5065803;28;20203;-73
2022/03/05 10:08:07;;;;;;;10.40;5.90;;;9.50;99.90;;;;;;5064692;28;20631;-74
2022/03/05 10:10:42;;;;;;;10.07;4.97;;;9.40;99.90;;;;;;5059323;28;20676;-73
2022/03/05 10:13:17;;;;;;;13.20;6.10;;;9.40;99.90;;;;;;5071457;28;20249;-73
2022/03/05 10:15:44;;;;;;;6.63;4.17;;;9.60;99.90;;;;;;5071097;28;20198;-74
2022/03/05 10:18:11;;;;;;;9.70;5.07;;;9.70;99.90;;;;;;5071546;28;20623;-74
2022/03/05 10:20:44;;;;;;;12.83;4.53;;;9.70;99.90;;;;;;5063289;28;20300;-74
2022/03/05 10:23:12;;;;;;;9.27;4.80;;;9.80;99.90;;;;;;5051367;28;20272;-74
2022/03/05 10:25:41;;;;;;;9.93;4.17;;;9.90;99.90;;;;;;5051459;28;20207;-73
2022/03/05 10:28:11;;;;;;;9.67;4.60;;;9.80;99.90;;;;;;5055124;28;20724;-72
2022/03/05 10:30:40;;;;;;;6.13;4.00;;;9.70;99.90;;;;;;5052142;28;20625;-74
2022/03/05 10:33:08;;;;;;;7.60;4.93;;;9.50;99.90;;;;;;5068370;28;20206;-74
2022/03/05 10:35:36;;;;;;;6.10;4.13;;;9.60;99.90;;;;;;5069672;28;20628;-74
2022/03/05 10:38:04;;;;;;;7.97;4.80;;;9.80;99.90;;;;;;5070350;28;20267;-72
2022/03/05 10:40:34;;;;;;;12.83;5.77;;;10.20;99.90;;;;;;5064708;28;20238;-75
2022/03/05 10:43:04;;;;;;;7.37;4.17;;;10.50;99.90;;;;;;5070700;28;20221;-77
2022/03/05 10:45:48;;;;;;;10.13;4.60;;;10.50;99.90;;;;;;5069692;28;20267;-78
2022/03/05 10:48:22;;;;;;;8.70;4.37;;;10.60;99.90;;;;;;5070744;28;20296;-78
2022/03/05 10:50:56;;;;;;;7.93;4.37;;;10.80;99.90;;;;;;5070371;28;20193;-78
2022/03/05 10:53:37;;;;;;;5.33;4.13;;;10.80;99.90;;;;;;5070732;28;20570;-78
2022/03/05 10:56:24;;;;;;;9.73;4.33;;;11.10;99.90;;;;;;5070197;28;20719;-80
2022/03/05 10:59:03;;;;;;;7.53;3.97;;;11.10;99.90;;;;;;5070190;28;20198;-75
2022/03/05 11:01:30;;;;;;;8.33;3.50;;;11.00;99.90;;;;;;5081073;28;20213;-76
2022/03/05 11:03:58;;;;;;;8.03;3.67;;;10.70;99.90;;;;;;5072601;28;20611;-76
2022/03/05 11:06:26;;;;;;;14.33;4.30;;;10.30;99.90;;;;;;5072165;28;20730;-76
2022/03/05 11:08:54;;;;;;;9.30;3.70;;;10.10;99.90;;;;;;5084266;28;20210;-77
2022/03/05 11:11:22;;;;;;;7.43;3.90;;;10.10;99.90;;;;;;5085804;28;20227;-73
2022/03/05 11:13:49;;;;;;;8.93;4.00;;;10.10;99.90;;;;;;5076889;28;20206;-77
2022/03/05 11:16:17;;;;;;;5.50;3.43;;;10.10;99.90;;;;;;5089134;28;20259;-77
2022/03/05 11:18:44;;;;;;;7.13;3.63;;;10.40;99.90;;;;;;5089483;28;20205;-75
2022/03/05 11:21:11;;;;;;;7.57;3.53;;;10.80;99.90;;;;;;5090227;28;20677;-75
2022/03/05 11:23:39;;;;;;;10.60;4.80;;;11.30;99.90;;;;;;5077938;28;20202;-71
2022/03/05 11:26:09;;;;;;;8.53;3.80;;;11.60;99.90;;;;;;5067176;28;20214;-79
2022/03/05 11:28:38;;;;;;;5.13;4.50;;;11.70;99.90;;;;;;5078629;28;20209;-75
2022/03/05 11:31:17;;;;;;;6.93;3.60;;;11.90;99.90;;;;;;5075501;28;20259;-76
2022/03/05 11:33:45;;;;;;;7.70;4.03;;;11.70;99.90;;;;;;5069543;28;20754;-74
2022/03/05 11:36:27;;;;;;;6.07;3.03;;;11.60;99.90;;;;;;5085052;28;20217;-76
2022/03/05 11:39:13;;;;;;;5.80;3.80;;;11.40;99.90;;;;;;5081350;28;20201;-74
2022/03/05 11:42:08;;;;;;;9.37;3.87;;;11.60;99.90;;;;;;5072056;28;20677;-73
2022/03/05 11:44:41;;;;;;;8.73;4.50;;;11.80;99.90;;;;;;5057589;28;20213;-77
2022/03/05 11:47:29;;;;;;;3.40;2.73;;;11.40;99.90;;;;;;5068476;28;20214;-78
2022/03/05 11:50:16;;;;;;;5.25;2.88;;;11.20;99.90;;;;;;5068097;28;20209;-73
2022/03/05 11:53:06;;;;;;;11.97;5.23;;;11.00;99.90;;;;;;5070254;28;20202;-78
2022/03/05 11:55:38;;;;;;;7.83;4.60;;;11.00;99.90;;;;;;5069998;28;20681;-77
2022/03/05 11:58:37;;;;;;;6.38;3.33;;;11.00;99.90;;;;;;5067679;28;20203;-74
2022/03/05 12:01:39;;;;;;;5.10;2.67;;;11.30;99.90;;;;;;5050192;28;20249;-79
2022/03/05 12:04:23;;;;;;;5.47;2.70;;;11.70;99.90;;;;;;5062930;28;20209;-76
2022/03/05 12:06:53;;;;;;;7.27;2.43;;;12.00;99.90;;;;;;5066730;28;20212;-74
2022/03/05 12:09:39;;;;;;;2.20;1.97;;;12.00;99.90;;;;;;5063832;28;20198;-79
2022/03/05 12:12:08;;;;;;;2.42;1.80;;;12.00;99.90;;;;;;5069718;28;20205;-83
2022/03/05 12:15:14;;;;;;;3.40;2.55;;;12.00;99.90;;;;;;5067652;28;20275;-82
2022/03/05 12:17:43;;;;;;;2.78;1.98;;;12.10;99.90;;;;;;5072271;28;20212;-78
2022/03/05 12:20:13;;;;;;;2.50;1.75;;;12.30;99.90;;;;;;5060845;28;20292;-79
2022/03/05 12:22:52;;;;;;;3.28;2.47;;;12.20;99.90;;;;;;5072825;28;20206;-73
2022/03/05 12:25:20;;;;;;;5.47;2.25;;;12.30;99.90;;;;;;5073800;28;20198;-78
2022/03/05 12:27:50;;;;;;;5.32;3.00;;;12.50;99.90;;;;;;5073002;28;20206;-80
2022/03/05 12:30:19;;;;;;;3.67;1.98;;;12.60;99.90;;;;;;5073919;28;20194;-77
2022/03/05 12:32:47;;;;;;;3.20;2.42;;;12.50;99.90;;;;;;5071780;28;20202;-82
2022/03/05 12:35:17;;;;;;;6.05;1.88;;;12.50;99.90;;;;;;5070255;28;20205;-83
2022/03/05 12:37:44;;;;;;;2.70;1.60;;;12.10;99.90;;;;;;5072863;28;20206;-79
2022/03/05 12:40:13;;;;;;;6.05;2.53;;;11.90;99.90;;;;;;5069110;28;20774;-77
2022/03/05 12:42:42;;;;;;;5.28;2.63;;;11.80;99.90;;;;;;5069577;28;20264;-73
2022/03/05 12:45:14;;;;;;;2.58;2.28;;;11.90;99.90;;;;;;5063369;28;20587;-77
2022/03/05 12:47:43;;;;;;;3.90;2.47;;;12.10;99.90;;;;;;5064472;28;20191;-77
2022/03/05 12:50:28;;;;;;;3.55;2.40;;;12.40;99.90;;;;;;5065483;28;20630;-75
2022/03/05 12:53:01;;;;;;;3.28;1.75;;;12.70;99.90;;;;;;5063353;28;20199;-78
2022/03/05 12:55:30;;;;;;;7.25;2.22;;;12.70;99.90;;;;;;5058262;28;20670;-73
2022/03/05 12:57:59;;;;;;;6.03;1.88;;;12.60;99.90;;;;;;5063307;28;20206;-79
2022/03/05 13:00:26;;;;;;;6.75;1.98;;;12.20;99.90;;;;;;5058395;28;20233;-73
2022/03/05 13:02:55;;;;;;;4.00;3.50;;;12.40;99.90;;;;;;5080206;28;20216;-74
2022/03/05 13:05:22;;;;;;;4.85;2.20;;;11.80;99.90;;;;;;5064524;28;20198;-72
2022/03/05 13:07:49;;;;;;;3.65;1.70;;;11.90;99.90;;;;;;5071479;28;20198;-71
2022/03/05 13:10:17;;;;;;;4.50;1.92;;;12.00;99.90;;;;;;5069913;28;20208;-75
2022/03/05 13:12:45;;;;;;;4.68;2.40;;;12.20;99.90;;;;;;5063575;28;20305;-76